Time;durP1;ratioP1;P1;durP2;ratioP2;P2;SDS_P1;SDS_P2;PMS_P1;PMS_P2;Temp;Humidity;BMP_temperature;BMP_pressure;BME280_temperature;BME280_humidity;BME280_pressure;Samples;Min_cycle;Max_cycle;Signal;HPM_P1;HPM_P2
2024/03/02 00:03:03;;;;;;;;;59.40;45.00;;;;;11.48;100.00;98157.09;6251096;27;96409;-56
2024/03/02 00:06:08;;;;;;;;;58.00;44.40;;;;;11.46;100.00;98158.38;6290002;27;96391;-56
2024/03/02 00:09:12;;;;;;;;;57.60;45.00;;;;;11.47;100.00;98157.31;6274802;27;97047;-56
2024/03/02 00:12:16;;;;;;;;;55.40;45.00;;;;;11.52;100.00;98162.81;6276404;27;96398;-56
2024/03/02 00:15:40;;;;;;;;;56.00;44.20;;;;;11.55;100.00;98151.50;6284515;27;96346;-56
2024/03/02 00:18:45;;;;;;;;;57.00;44.00;;;;;11.52;100.00;98162.81;6288314;27;96921;-56
2024/03/02 00:21:48;;;;;;;;;55.80;44.20;;;;;11.57;100.00;98169.09;6292138;27;96498;-56
2024/03/02 00:24:51;;;;;;;;;56.25;45.00;;;;;11.59;100.00;98168.84;6289842;27;96197;-56
2024/03/02 00:27:55;;;;;;;;;56.40;44.00;;;;;11.59;100.00;98169.66;6290530;27;96658;-56
2024/03/02 00:31:00;;;;;;;;;57.40;45.00;;;;;11.47;100.00;98152.75;6295921;27;96438;-56
2024/03/02 00:34:06;;;;;;;;;55.80;43.60;;;;;11.49;100.00;98150.59;6293264;27;96728;-57
2024/03/02 00:37:11;;;;;;;;;56.60;45.00;;;;;11.53;100.00;98150.94;6291481;27;96308;-56
2024/03/02 00:40:14;;;;;;;;;57.00;45.75;;;;;11.41;100.00;98166.38;6288010;27;96421;-56
2024/03/02 00:43:46;;;;;;;;;55.60;44.00;;;;;11.37;100.00;98160.66;6289571;27;96676;-56
2024/03/02 00:46:50;;;;;;;;;57.50;45.00;;;;;11.34;100.00;98160.34;6295400;27;96717;-56
2024/03/02 00:49:55;;;;;;;;;57.00;46.00;;;;;11.41;100.00;98150.19;6287116;27;96584;-57
2024/03/02 00:52:58;;;;;;;;;55.40;43.00;;;;;11.45;100.00;98149.47;6287808;27;96291;-56
2024/03/02 00:56:02;;;;;;;;;58.00;46.00;;;;;11.50;100.00;98146.84;6290729;27;96297;-56
2024/03/02 00:59:06;;;;;;;;;56.25;44.00;;;;;11.52;100.00;98146.59;6288001;27;96969;-56
2024/03/02 01:02:09;;;;;;;;;58.25;45.00;;;;;11.48;100.00;98145.47;6279162;27;96265;-56
2024/03/02 01:05:14;;;;;;;;;56.00;44.60;;;;;11.45;100.00;98144.06;6286414;27;96922;-56
2024/03/02 01:08:17;;;;;;;;;57.00;44.60;;;;;11.47;100.00;98139.25;6284153;27;96886;-56
2024/03/02 01:11:21;;;;;;;;;61.25;47.00;;;;;11.42;100.00;98139.16;6304189;27;96416;-56
2024/03/02 01:14:26;;;;;;;;;57.00;44.40;;;;;11.34;100.00;98133.38;6304298;27;96366;-57
2024/03/02 01:17:29;;;;;;;;;59.40;46.00;;;;;11.26;100.00;98124.59;6303713;27;96921;-56
2024/03/02 01:20:34;;;;;;;;;56.80;44.00;;;;;11.26;100.00;98124.59;6297406;27;96438;-54
2024/03/02 01:23:37;;;;;;;;;55.75;44.00;;;;;11.15;100.00;98132.75;6271584;27;96890;-54
2024/03/02 01:26:40;;;;;;;;;58.00;45.00;;;;;11.20;100.00;98122.88;6288237;27;97323;-53
2024/03/02 01:29:43;;;;;;;;;58.00;44.00;;;;;11.20;100.00;98127.44;6289073;27;96343;-54
2024/03/02 01:32:46;;;;;;;;;57.20;44.60;;;;;11.10;100.00;98113.78;6272476;27;96178;-54
2024/03/02 01:35:51;;;;;;;;;59.40;46.00;;;;;11.06;100.00;98105.38;6266647;27;96261;-54
2024/03/02 01:38:54;;;;;;;;;59.25;46.00;;;;;11.10;100.00;98120.00;6283654;27;96985;-54
2024/03/02 01:41:58;;;;;;;;;58.00;45.60;;;;;10.95;100.00;98076.56;6263300;27;97627;-54
2024/03/02 01:45:01;;;;;;;;;58.00;44.40;;;;;11.14;100.00;98104.94;6263532;27;96258;-54
2024/03/02 01:48:05;;;;;;;;;57.00;44.00;;;;;11.04;100.00;98104.81;6260932;27;96720;-54
2024/03/02 01:51:10;;;;;;;;;52.80;41.80;;;;;10.97;100.00;98093.34;6288731;27;96395;-54
2024/03/02 01:54:13;;;;;;;;;57.00;43.00;;;;;10.99;100.00;98095.81;6265047;27;96486;-54
2024/03/02 01:57:17;;;;;;;;;56.00;44.00;;;;;11.01;100.00;98096.38;6269931;27;96351;-54
2024/03/02 02:00:20;;;;;;;;;52.00;42.00;;;;;10.80;100.00;98076.31;6287982;27;96607;-55
2024/03/02 02:03:24;;;;;;;;;57.25;44.00;;;;;10.98;100.00;98100.38;6243829;22;96466;-56
2024/03/02 02:06:29;;;;;;;;;55.20;43.00;;;;;11.04;100.00;98112.09;6168629;28;98619;-56
2024/03/02 02:09:32;;;;;;;;;53.00;42.20;;;;;11.04;100.00;98104.00;6187716;28;96395;-56
2024/03/02 02:12:37;;;;;;;;;57.80;44.80;;;;;10.91;100.00;98107.78;6174592;28;96206;-56
2024/03/02 02:15:40;;;;;;;;;52.60;43.00;;;;;10.88;100.00;98108.28;6174416;28;96386;-55
2024/03/02 02:18:43;;;;;;;;;55.80;44.40;;;;;10.99;100.00;98102.03;6188401;28;96263;-56
2024/03/02 02:21:48;;;;;;;;;52.80;43.00;;;;;11.00;100.00;98106.34;6166168;28;96390;-56
2024/03/02 02:24:51;;;;;;;;;53.00;43.00;;;;;10.99;100.00;98110.13;6181453;28;97067;-57
2024/03/02 02:27:55;;;;;;;;;57.00;43.00;;;;;11.03;100.00;98113.13;6142273;28;96372;-56
2024/03/02 02:31:00;;;;;;;;;51.20;41.40;;;;;10.97;100.00;98111.41;6144900;28;98155;-56
2024/03/02 02:34:03;;;;;;;;;50.20;40.00;;;;;10.95;100.00;98108.13;6163082;28;96526;-56
2024/03/02 02:37:08;;;;;;;;;54.25;42.00;;;;;10.85;100.00;98106.06;6148273;28;98898;-56
2024/03/02 02:40:12;;;;;;;;;57.40;44.60;;;;;10.77;100.00;98101.06;6145223;28;96222;-56
2024/03/02 02:43:15;;;;;;;;;55.00;43.00;;;;;10.76;100.00;98097.56;6141939;28;96291;-57
2024/03/02 02:46:18;;;;;;;;;52.60;42.00;;;;;10.77;100.00;98095.69;6141464;28;96453;-56
2024/03/02 02:49:21;;;;;;;;;50.00;40.00;;;;;10.74;100.00;98083.50;6142818;28;96255;-56
2024/03/02 02:52:26;;;;;;;;;49.60;41.00;;;;;10.83;100.00;98086.63;6146676;28;98671;-56
2024/03/02 02:55:29;;;;;;;;;52.00;39.00;;;;;10.79;100.00;98082.78;6153680;28;96970;-56
2024/03/02 02:58:33;;;;;;;;;49.20;40.00;;;;;10.82;100.00;98087.69;6141370;28;96220;-56
2024/03/02 03:01:36;;;;;;;;;50.80;41.00;;;;;10.81;100.00;98091.44;6127499;28;96812;-56
2024/03/02 03:04:41;;;;;;;;;49.00;41.00;;;;;10.59;100.00;98088.63;6143401;28;96906;-56
2024/03/02 03:07:45;;;;;;;;;53.00;41.00;;;;;10.72;100.00;98096.41;6163514;28;96392;-56
2024/03/02 03:10:49;;;;;;;;;47.60;37.20;;;;;10.78;100.00;98091.94;6157073;28;96463;-57
2024/03/02 03:13:53;;;;;;;;;50.00;40.50;;;;;10.84;100.00;98107.13;6142246;28;96420;-57
2024/03/02 03:16:57;;;;;;;;;51.50;40.00;;;;;10.88;100.00;98112.88;6140587;28;96486;-57
2024/03/02 03:20:00;;;;;;;;;52.00;41.00;;;;;10.84;100.00;98107.13;6154555;28;96284;-57
2024/03/02 03:23:05;;;;;;;;;48.75;39.75;;;;;10.77;100.00;98107.28;6159014;28;96640;-57
2024/03/02 03:26:08;;;;;;;;;50.00;39.50;;;;;10.79;100.00;98104.34;6177499;28;96367;-57
2024/03/02 03:29:12;;;;;;;;;51.40;39.40;;;;;10.74;100.00;98102.38;6147090;28;96260;-57
2024/03/02 03:32:15;;;;;;;;;51.50;40.00;;;;;10.73;100.00;98097.22;6144883;28;96499;-58
2024/03/02 03:35:18;;;;;;;;;50.50;39.75;;;;;10.60;100.00;98097.53;6143216;28;96834;-57
2024/03/02 03:38:23;;;;;;;;;52.25;42.00;;;;;10.69;100.00;98093.38;6164902;28;96491;-57
2024/03/02 03:41:26;;;;;;;;;47.60;38.00;;;;;10.78;100.00;98086.53;6164319;28;97014;-57
2024/03/02 03:44:29;;;;;;;;;50.00;40.00;;;;;10.77;100.00;98074.94;6164697;28;96343;-57
2024/03/02 03:47:32;;;;;;;;;48.60;39.20;;;;;10.81;100.00;98086.03;6149267;28;96317;-57
2024/03/02 03:50:36;;;;;;;;;47.40;39.40;;;;;10.79;100.00;98080.09;6140015;28;96884;-57
2024/03/02 03:53:40;;;;;;;;;48.50;38.50;;;;;10.75;100.00;98085.13;6140624;28;96531;-57
2024/03/02 03:56:43;;;;;;;;;49.25;40.00;;;;;10.68;100.00;98089.03;6140160;28;96311;-57
2024/03/02 03:59:47;;;;;;;;;45.00;38.00;;;;;10.72;100.00;98088.31;6122496;28;100354;-57
2024/03/02 04:02:50;;;;;;;;;50.00;40.00;;;;;10.60;100.00;98089.44;6139301;28;96361;-57
2024/03/02 04:05:53;;;;;;;;;45.60;38.40;;;;;10.56;100.00;98078.31;6122683;28;96407;-57
2024/03/02 04:08:57;;;;;;;;;47.00;37.60;;;;;10.52;100.00;98085.25;6144661;28;96443;-57
2024/03/02 04:12:00;;;;;;;;;46.00;35.50;;;;;10.50;100.00;98081.16;6164370;28;96630;-57
2024/03/02 04:15:06;;;;;;;;;47.60;39.40;;;;;10.43;100.00;98081.28;6164166;28;96433;-57
2024/03/02 04:18:09;;;;;;;;;47.50;38.50;;;;;10.46;100.00;98083.50;6161911;28;96328;-57
2024/03/02 04:21:12;;;;;;;;;45.00;36.00;;;;;10.46;100.00;98088.09;6143352;28;96446;-53
2024/03/02 04:24:17;;;;;;;;;52.00;41.60;;;;;10.40;100.00;98087.19;6171931;28;96452;-53
2024/03/02 04:27:20;;;;;;;;;51.40;41.20;;;;;10.35;100.00;98093.28;6177984;28;99096;-53
2024/03/02 04:30:23;;;;;;;;;45.50;38.00;;;;;10.35;100.00;98093.28;6150441;28;96381;-53
2024/03/02 04:33:26;;;;;;;;;47.00;38.00;;;;;10.34;100.00;98098.91;6155272;28;96369;-53
2024/03/02 04:36:29;;;;;;;;;49.00;39.00;;;;;10.38;100.00;98090.09;6173383;28;96440;-53
2024/03/02 04:39:35;;;;;;;;;45.00;36.60;;;;;10.43;100.00;98095.59;6144206;28;97108;-52
2024/03/02 04:42:38;;;;;;;;;49.00;38.00;;;;;10.43;100.00;98086.69;6148044;28;96391;-52
2024/03/02 04:45:42;;;;;;;;;48.50;38.00;;;;;10.37;100.00;98084.94;6159956;28;96399;-53
2024/03/02 04:48:45;;;;;;;;;49.60;38.00;;;;;10.33;100.00;98084.63;6172587;28;97045;-52
2024/03/02 04:51:48;;;;;;;;;50.00;40.00;;;;;10.29;100.00;98072.69;6159072;28;96370;-53
2024/03/02 04:55:23;;;;;;;;;46.20;39.00;;;;;10.29;100.00;98070.00;6152467;28;96504;-52
2024/03/02 04:58:26;;;;;;;;;49.60;39.40;;;;;10.32;100.00;98082.97;6169541;28;96678;-53
2024/03/02 05:01:29;;;;;;;;;51.60;40.80;;;;;10.35;100.00;98090.59;6150743;28;96526;-52
2024/03/02 05:04:32;;;;;;;;;46.75;36.75;;;;;10.31;100.00;98089.41;6130855;28;96634;-53
2024/03/02 05:07:36;;;;;;;;;48.40;37.20;;;;;10.28;100.00;98097.16;6155973;28;96919;-52
2024/03/02 05:10:40;;;;;;;;;48.00;37.20;;;;;10.24;100.00;98096.00;6197540;28;96484;-53
2024/03/02 05:13:43;;;;;;;;;45.00;38.00;;;;;10.08;100.00;98078.69;6183552;28;96430;-53
2024/03/02 05:16:46;;;;;;;;;50.20;40.20;;;;;10.24;100.00;98099.53;6195787;28;96457;-53
2024/03/02 05:19:49;;;;;;;;;49.00;38.75;;;;;10.12;100.00;98114.84;6168765;28;97026;-53
2024/03/02 05:22:53;;;;;;;;;47.00;38.40;;;;;10.07;100.00;98111.25;6149607;28;96959;-53
2024/03/02 05:25:57;;;;;;;;;47.60;39.00;;;;;10.02;100.00;98116.53;6159954;28;96254;-53
2024/03/02 05:29:00;;;;;;;;;51.00;39.20;;;;;10.09;100.00;98119.91;6154419;28;97859;-53
2024/03/02 05:32:03;;;;;;;;;46.20;37.00;;;;;10.19;100.00;98122.84;6171951;28;96267;-52
2024/03/02 05:35:07;;;;;;;;;48.00;38.00;;;;;10.27;100.00;98127.84;6172039;28;96339;-53
2024/03/02 05:38:11;;;;;;;;;46.80;38.80;;;;;10.31;100.00;98127.13;6171512;28;96351;-53
2024/03/02 05:41:15;;;;;;;;;49.25;39.50;;;;;10.40;100.00;98138.38;6162662;28;96784;-53
2024/03/02 05:44:19;;;;;;;;;44.20;35.00;;;;;10.48;100.00;98134.47;6172245;28;96192;-54
2024/03/02 05:47:22;;;;;;;;;48.80;38.20;;;;;10.55;100.00;98133.28;6175932;28;96941;-53
2024/03/02 05:50:25;;;;;;;;;47.00;38.00;;;;;10.59;100.00;98123.66;6158024;28;96863;-52
2024/03/02 05:53:28;;;;;;;;;46.50;36.75;;;;;10.64;100.00;98128.31;6162065;28;96299;-52
2024/03/02 05:56:33;;;;;;;;;46.40;37.80;;;;;10.63;100.00;98126.69;6155761;28;96639;-52
2024/03/02 05:59:36;;;;;;;;;45.75;36.75;;;;;10.66;100.00;98123.50;6175613;28;97036;-53
2024/03/02 06:02:40;;;;;;;;;45.60;38.00;;;;;10.72;100.00;98133.31;6154507;28;96778;-52
2024/03/02 06:05:43;;;;;;;;;45.00;35.75;;;;;10.78;100.00;98138.59;6139304;28;97046;-53
2024/03/02 06:08:46;;;;;;;;;45.80;38.40;;;;;10.81;100.00;98139.97;6141637;28;96935;-53
2024/03/02 06:11:51;;;;;;;;;46.50;38.00;;;;;10.80;100.00;98138.31;6156086;28;96346;-52
2024/03/02 06:14:55;;;;;;;;;45.50;38.00;;;;;10.81;100.00;98145.34;6137834;28;96770;-54
2024/03/02 06:17:59;;;;;;;;;46.25;37.50;;;;;10.88;100.00;98153.31;6154977;28;96550;-53
2024/03/02 06:21:02;;;;;;;;;47.40;38.40;;;;;10.97;100.00;98149.97;6122978;28;99233;-54
2024/03/02 06:24:06;;;;;;;;;46.20;36.00;;;;;11.10;100.00;98154.25;6139743;28;96695;-54
2024/03/02 06:27:11;;;;;;;;;45.40;36.00;;;;;11.19;100.00;98153.59;6158360;28;96266;-54
2024/03/02 06:30:14;;;;;;;;;45.20;36.00;;;;;11.28;100.00;98152.16;6151776;28;96462;-53
2024/03/02 06:33:17;;;;;;;;;44.00;35.25;;;;;11.33;100.00;98153.31;6163173;28;96371;-53
2024/03/02 06:36:21;;;;;;;;;49.00;39.00;;;;;11.43;100.00;98148.91;6154937;28;96384;-53
2024/03/02 06:39:24;;;;;;;;;46.00;38.40;;;;;11.45;100.00;98141.38;6138140;28;96337;-53
2024/03/02 06:42:32;;;;;;;;;50.40;39.00;;;;;11.48;100.00;98148.16;6134018;28;97373;-56
2024/03/02 06:45:36;;;;;;;;;51.60;40.80;;;;;11.50;100.00;98149.53;6145483;28;97155;-57
2024/03/02 06:48:39;;;;;;;;;49.60;40.00;;;;;11.60;100.00;98157.00;6135595;28;96662;-57
2024/03/02 06:51:43;;;;;;;;;52.00;42.20;;;;;11.59;100.00;98156.16;6151036;28;97609;-58
2024/03/02 06:54:46;;;;;;;;;49.60;41.00;;;;;11.61;100.00;98148.66;6139754;28;96886;-56
2024/03/02 06:57:51;;;;;;;;;51.25;40.50;;;;;11.77;100.00;98149.75;6140502;28;96331;-59
2024/03/02 07:00:54;;;;;;;;;50.33;40.33;;;;;11.91;100.00;98164.53;6153057;28;96626;-58
2024/03/02 07:03:58;;;;;;;;;49.75;41.00;;;;;11.94;100.00;98153.22;6157306;28;96785;-57
2024/03/02 07:07:01;;;;;;;;;49.00;39.00;;;;;11.98;100.00;98156.25;6155924;28;97436;-59
2024/03/02 07:10:05;;;;;;;;;47.60;39.00;;;;;12.08;100.00;98156.38;6154026;28;96619;-57
2024/03/02 07:13:12;;;;;;;;;49.40;40.00;;;;;12.19;100.00;98162.75;6132474;28;96789;-57
2024/03/02 07:16:29;;;;;;;;;48.20;39.60;;;;;12.22;100.00;98176.56;6155295;28;96485;-58
2024/03/02 07:19:32;;;;;;;;;47.00;37.75;;;;;12.23;100.00;98174.69;6152373;28;97093;-58
2024/03/02 07:22:37;;;;;;;;;50.80;42.00;;;;;12.24;100.00;98174.44;6153168;28;96839;-58
2024/03/02 07:25:43;;;;;;;;;49.00;39.40;;;;;12.20;100.00;98169.78;6149618;28;96966;-58
2024/03/02 07:28:51;;;;;;;;;46.40;35.40;;;;;12.23;100.00;98170.09;6138014;28;96743;-58
2024/03/02 07:31:54;;;;;;;;;49.60;39.60;;;;;12.34;100.00;98180.00;6152895;28;96451;-58
2024/03/02 07:34:58;;;;;;;;;53.40;41.00;;;;;12.43;100.00;98175.78;6134281;28;96697;-58
2024/03/02 07:38:01;;;;;;;;;48.00;39.40;;;;;12.53;100.00;98175.09;6142358;28;96326;-58
2024/03/02 07:41:05;;;;;;;;;49.00;39.00;;;;;12.56;100.00;98180.00;6146656;28;96670;-59
2024/03/02 07:44:11;;;;;;;;;54.00;41.00;;;;;12.38;100.00;98172.19;6156820;28;97473;-58
2024/03/02 07:47:14;;;;;;;;;49.40;40.00;;;;;12.53;100.00;98183.22;6155246;28;96979;-56
2024/03/02 07:50:17;;;;;;;;;49.00;39.00;;;;;12.51;100.00;98185.38;6155024;28;96371;-57
2024/03/02 07:53:20;;;;;;;;;47.00;38.20;;;;;12.43;100.00;98185.78;6157577;28;96431;-58
2024/03/02 07:56:23;;;;;;;;;47.00;39.60;;;;;12.46;100.00;98183.38;6155811;28;97626;-57
2024/03/02 07:59:28;;;;;;;;;48.00;38.25;;;;;12.51;100.00;98188.84;6156100;28;96324;-58
2024/03/02 08:02:31;;;;;;;;;46.75;37.50;;;;;12.57;100.00;98195.16;6155803;28;96680;-57
2024/03/02 08:05:34;;;;;;;;;48.50;38.25;;;;;12.73;100.00;98190.75;6147553;28;96731;-58
2024/03/02 08:08:37;;;;;;;;;46.80;37.80;;;;;12.83;100.00;98190.88;6144340;28;96409;-57
2024/03/02 08:11:40;;;;;;;;;47.25;38.00;;;;;12.90;100.00;98184.19;6159387;28;96538;-57
2024/03/02 08:14:45;;;;;;;;;47.40;38.40;;;;;13.00;100.00;98184.31;6139758;28;96331;-59
2024/03/02 08:17:49;;;;;;;;;50.50;39.00;;;;;13.11;100.00;98179.84;6143729;28;96475;-58
2024/03/02 08:20:53;;;;;;;;;50.00;39.00;;;;;13.25;100.00;98191.06;6159501;28;96942;-57
2024/03/02 08:23:56;;;;;;;;;49.00;41.00;;;;;13.34;100.00;98186.84;6163168;28;96388;-57
2024/03/02 08:26:59;;;;;;;;;52.60;41.60;;;;;13.21;100.00;98187.25;6147773;28;97643;-57
2024/03/02 08:30:06;;;;;;;;;50.75;38.00;;;;;13.11;100.00;98189.81;6138502;28;96393;-58
2024/03/02 08:33:10;;;;;;;;;48.60;38.20;;;;;13.05;100.00;98198.97;6137847;28;96491;-57
2024/03/02 08:36:13;;;;;;;;;47.40;39.00;;;;;13.03;100.00;98196.53;6134479;28;96517;-57
2024/03/02 08:39:16;;;;;;;;;47.00;38.00;;;;;13.09;100.00;98200.09;6133315;28;97520;-57
2024/03/02 08:42:20;;;;;;;;;48.40;39.60;;;;;13.19;100.00;98211.06;6133306;28;97894;-57
2024/03/02 08:45:24;;;;;;;;;50.25;39.75;;;;;13.32;100.00;98210.66;6133389;28;97058;-57
2024/03/02 08:48:27;;;;;;;;;49.00;39.00;;;;;13.33;100.00;98212.28;6134658;28;97035;-58
2024/03/02 08:51:31;;;;;;;;;48.00;39.00;;;;;13.37;100.00;98216.94;6138493;28;96357;-58
2024/03/02 08:54:36;;;;;;;;;47.00;39.00;;;;;13.31;100.00;98215.25;6138127;28;96359;-57
2024/03/02 08:57:39;;;;;;;;;46.00;38.00;;;;;13.33;100.00;98212.28;6146346;28;96567;-57
2024/03/02 09:00:44;;;;;;;;;48.00;39.00;;;;;13.46;100.00;98209.16;6146387;28;96481;-55
2024/03/02 09:03:48;;;;;;;;;50.60;39.80;;;;;13.55;100.00;98207.63;6149771;28;96313;-56
2024/03/02 09:06:52;;;;;;;;;48.60;39.00;;;;;13.45;100.00;98216.47;6152318;28;96565;-56
2024/03/02 09:09:55;;;;;;;;;47.00;38.00;;;;;13.37;100.00;98216.94;6161020;28;96509;-56
2024/03/02 09:12:59;;;;;;;;;46.80;36.20;;;;;13.19;100.00;98222.72;6160866;28;98222;-56
2024/03/02 09:16:04;;;;;;;;;45.25;37.00;;;;;13.21;100.00;98222.44;6158835;28;96500;-56
2024/03/02 09:19:09;;;;;;;;;47.60;38.40;;;;;13.36;100.00;98222.59;6143969;28;96318;-56
2024/03/02 09:22:13;;;;;;;;;47.00;38.00;;;;;13.45;100.00;98221.88;6144184;28;97315;-56
2024/03/02 09:25:16;;;;;;;;;46.50;37.50;;;;;13.52;100.00;98232.50;6153719;28;96292;-55
2024/03/02 09:28:19;;;;;;;;;45.40;37.40;;;;;13.61;100.00;98240.97;6153455;28;96500;-55
2024/03/02 09:31:25;;;;;;;;;52.20;41.00;;;;;13.59;100.00;98246.66;6150352;28;97135;-56
2024/03/02 09:34:28;;;;;;;;;48.25;39.50;;;;;13.65;100.00;98239.38;6154318;28;96398;-56
2024/03/02 09:37:31;;;;;;;;;49.25;40.00;;;;;13.74;100.00;98238.66;6138947;28;96401;-56
2024/03/02 09:40:34;;;;;;;;;50.20;40.00;;;;;13.80;100.00;98234.09;6130977;28;98474;-56
2024/03/02 09:43:38;;;;;;;;;48.80;39.00;;;;;13.95;100.00;98252.38;6153590;28;96437;-56
2024/03/02 09:46:43;;;;;;;;;52.50;41.50;;;;;14.12;100.00;98253.09;6126009;28;96604;-57
2024/03/02 09:49:47;;;;;;;;;47.50;39.00;;;;;14.05;100.00;98241.63;6154343;28;96459;-57
2024/03/02 09:52:50;;;;;;;;;45.75;38.00;;;;;14.24;100.00;98256.41;6146373;28;96815;-56
2024/03/02 09:55:53;;;;;;;;;47.00;39.00;;;;;14.15;100.00;98234.41;6146820;28;96785;-57
2024/03/02 09:58:57;;;;;;;;;49.00;40.00;;;;;14.31;100.00;98257.00;6147615;28;96966;-56
2024/03/02 10:02:02;;;;;;;;;49.00;41.00;;;;;14.30;100.00;98260.78;6144014;28;96432;-56
2024/03/02 10:05:06;;;;;;;;;52.00;41.00;;;;;14.30;100.00;98260.78;6145126;28;96662;-56
2024/03/02 10:08:09;;;;;;;;;48.40;40.00;;;;;14.11;100.00;98208.06;6118703;28;96624;-56
2024/03/02 10:11:27;;;;;;;;;49.00;40.00;;;;;14.55;100.00;98255.56;6157690;28;97688;-53
2024/03/02 10:14:30;;;;;;;;;53.25;41.00;;;;;14.65;100.00;98247.50;6160856;28;96352;-54
2024/03/02 10:17:35;;;;;;;;;48.25;36.75;;;;;14.45;100.00;98249.25;6160826;28;96613;-53
2024/03/02 10:20:39;;;;;;;;;48.00;38.00;;;;;14.43;100.00;98260.34;6156655;28;96413;-53
2024/03/02 10:23:42;;;;;;;;;47.80;38.60;;;;;14.40;100.00;98254.66;6173158;28;96992;-54
2024/03/02 10:26:45;;;;;;;;;47.00;38.00;;;;;14.32;100.00;98239.63;6172167;28;96505;-55
2024/03/02 10:29:48;;;;;;;;;44.40;35.00;;;;;14.38;100.00;98240.53;6171081;28;96211;-53
2024/03/02 10:32:54;;;;;;;;;48.20;38.00;;;;;14.61;100.00;98246.34;6156951;28;97202;-52
2024/03/02 10:35:58;;;;;;;;;45.00;37.00;;;;;14.79;100.00;98239.69;6177385;28;96590;-54
2024/03/02 10:39:03;;;;;;;;;45.80;37.80;;;;;14.71;100.00;98224.69;6168146;28;97523;-55
2024/03/02 10:42:07;;;;;;;;;45.00;37.20;;;;;14.87;100.00;98232.91;6152049;28;97634;-55
2024/03/02 10:45:11;;;;;;;;;42.40;35.40;;;;;15.21;100.00;98236.03;6159436;28;96545;-55
2024/03/02 10:48:16;;;;;;;;;46.80;37.00;;;;;15.58;100.00;98232.09;6163414;28;96472;-58
2024/03/02 10:51:19;;;;;;;;;46.60;36.00;;;;;16.09;100.00;98236.69;6162754;28;96282;-54
2024/03/02 10:54:26;;;;;;;;;46.60;38.60;;;;;16.56;100.00;98231.75;6170617;28;96285;-54
2024/03/02 10:57:39;;;;;;;;;47.00;38.00;;;;;17.16;100.00;98228.00;6160710;28;96790;-54
2024/03/02 11:00:45;;;;;;;;;50.00;39.80;;;;;17.52;100.00;98225.88;6164308;28;96351;-55
2024/03/02 11:03:50;;;;;;;;;48.00;38.50;;;;;17.78;100.00;98229.28;6161239;28;96371;-56
2024/03/02 11:07:00;;;;;;;;;47.00;38.00;;;;;18.02;100.00;98226.66;6155276;28;97041;-54
2024/03/02 11:10:08;;;;;;;;;49.00;40.00;;;;;18.21;100.00;98211.19;6164504;28;97582;-54
2024/03/02 11:13:13;;;;;;;;;49.50;39.00;;;;;18.61;100.00;98223.66;6165661;28;96567;-54
2024/03/02 11:16:26;;;;;;;;;47.00;37.40;;;;;18.94;100.00;98228.16;6163528;28;96416;-56
2024/03/02 11:19:32;;;;;;;;;46.40;38.00;;;;;19.14;100.00;98224.38;6160584;28;96397;-55
2024/03/02 11:22:36;;;;;;;;;48.40;39.80;;;;;18.86;100.00;98228.78;6154357;28;97126;-58
2024/03/02 11:25:40;;;;;;;;;48.00;39.00;;;;;18.51;100.00;98230.00;6149285;28;97323;-58
2024/03/02 11:28:43;;;;;;;;;49.00;39.00;;;;;18.51;100.00;98218.25;6146304;28;96740;-58
2024/03/02 11:31:59;;;;;;;;;48.00;38.00;;;;;18.41;100.00;98219.19;6143283;28;96721;-58
2024/03/02 11:35:04;;;;;;;;;47.40;38.20;;;;;18.31;100.00;98215.72;6144370;28;96333;-58
2024/03/02 11:38:08;;;;;;;;;52.60;40.40;;;;;18.23;100.00;98211.69;6141817;28;96231;-58
2024/03/02 11:41:11;;;;;;;;;46.00;38.00;;;;;18.14;100.00;98211.50;6158070;28;96375;-58
2024/03/02 11:44:16;;;;;;;;;47.60;38.00;;;;;18.06;100.00;98201.22;6127069;28;96591;-58
2024/03/02 11:47:19;;;;;;;;;48.25;39.00;;;;;18.06;100.00;98209.41;6149944;28;97314;-57
2024/03/02 11:50:34;;;;;;;;;44.20;37.60;;;;;17.98;100.00;98207.31;6160055;28;96373;-58
2024/03/02 11:53:42;;;;;;;;;47.00;36.00;;;;;17.70;100.00;98178.91;6163831;28;96498;-58
2024/03/02 11:56:46;;;;;;;;;44.60;36.40;;;;;17.94;100.00;98203.50;6161012;28;97072;-58
2024/03/02 11:59:50;;;;;;;;;42.60;35.20;;;;;17.93;100.00;98207.34;6140388;28;96669;-57
2024/03/02 12:03:01;;;;;;;;;47.60;36.00;;;;;17.93;100.00;98201.91;6141505;28;96317;-57
2024/03/02 12:06:07;;;;;;;;;44.60;36.00;;;;;17.82;100.00;98202.25;6147752;28;96779;-57
2024/03/02 12:09:12;;;;;;;;;44.00;35.00;;;;;17.59;100.00;98212.78;6144413;28;97456;-57
2024/03/02 12:12:18;;;;;;;;;44.00;36.00;;;;;17.52;100.00;98208.72;6151267;28;96467;-57
2024/03/02 12:15:24;;;;;;;;;45.00;37.00;;;;;17.49;100.00;98212.84;6121507;28;96704;-57
2024/03/02 12:18:27;;;;;;;;;49.40;38.00;;;;;17.47;100.00;98217.75;6146663;28;96684;-57
2024/03/02 12:21:32;;;;;;;;;48.00;38.00;;;;;17.13;100.00;98214.94;6160895;28;96351;-57
2024/03/02 12:24:35;;;;;;;;;46.00;36.00;;;;;17.14;100.00;98210.31;6149454;28;96860;-57
2024/03/02 12:27:40;;;;;;;;;49.00;39.00;;;;;17.12;100.00;98212.50;6126280;28;96394;-57
2024/03/02 12:30:43;;;;;;;;;49.40;38.60;;;;;17.22;100.00;98215.16;6156148;28;96489;-57
2024/03/02 12:33:47;;;;;;;;;45.00;38.00;;;;;17.21;100.00;98208.09;6181651;28;96979;-56
2024/03/02 12:36:52;;;;;;;;;49.80;40.00;;;;;17.16;100.00;98202.66;6168397;28;96427;-57
2024/03/02 12:39:56;;;;;;;;;46.20;37.80;;;;;17.07;100.00;98207.88;6194623;28;96335;-57
2024/03/02 12:42:59;;;;;;;;;48.50;39.00;;;;;17.31;100.00;98200.66;6194540;28;96336;-57
2024/03/02 12:46:03;;;;;;;;;49.60;38.00;;;;;17.85;100.00;98198.97;6195340;28;96320;-58
2024/03/02 12:49:10;;;;;;;;;44.75;36.25;;;;;18.51;100.00;98191.78;6192982;28;96680;-57
2024/03/02 12:52:15;;;;;;;;;47.60;38.60;;;;;19.17;100.00;98190.16;6178034;28;96379;-57
2024/03/02 12:55:21;;;;;;;;;50.00;40.00;;;;;19.61;100.00;98198.84;6189028;28;96330;-57
2024/03/02 12:58:26;;;;;;;;;51.00;39.50;;;;;19.96;100.00;98194.72;6190813;28;96315;-57
2024/03/02 13:01:29;;;;;;;;;46.20;36.00;;;;;20.10;100.00;98211.19;6191510;28;96289;-57
2024/03/02 13:04:32;;;;;;;;;47.00;38.00;;;;;20.24;100.00;98192.88;6176347;28;96432;-57
2024/03/02 13:07:37;;;;;;;;;44.60;36.00;;;;;20.44;100.00;98198.00;6158536;28;96385;-57
2024/03/02 13:10:41;;;;;;;;;46.60;36.60;;;;;20.52;100.00;98199.25;6178537;28;96325;-57
2024/03/02 13:13:44;;;;;;;;;41.00;34.00;;;;;20.44;100.00;98180.78;6180832;28;96422;-58
2024/03/02 13:16:48;;;;;;;;;43.00;35.00;;;;;20.45;100.00;98193.34;6179826;28;96434;-57
2024/03/02 13:19:54;;;;;;;;;44.80;37.00;;;;;20.38;100.00;98180.03;6169856;28;96822;-57
2024/03/02 13:22:59;;;;;;;;;41.00;34.00;;;;;20.32;100.00;98189.50;6170081;28;96339;-57
2024/03/02 13:26:02;;;;;;;;;45.20;36.00;;;;;20.22;100.00;98195.94;6174982;28;96235;-58
2024/03/02 13:29:06;;;;;;;;;42.40;35.00;;;;;20.17;100.00;98185.06;6175614;28;98510;-58
2024/03/02 13:32:09;;;;;;;;;44.75;36.00;;;;;20.15;100.00;98184.53;6179146;28;96517;-57
2024/03/02 13:35:12;;;;;;;;;44.50;36.00;;;;;20.13;100.00;98186.78;6170039;28;96355;-58
2024/03/02 13:38:17;;;;;;;;;45.00;37.40;;;;;20.06;100.00;98186.34;6152815;28;99018;-58
2024/03/02 13:41:21;;;;;;;;;46.80;38.00;;;;;19.96;100.00;98182.97;6169802;28;96396;-58
2024/03/02 13:44:24;;;;;;;;;41.00;35.00;;;;;19.79;100.00;98191.75;6169795;28;96562;-60
2024/03/02 13:47:28;;;;;;;;;46.20;37.20;;;;;19.73;100.00;98185.53;6201737;22;98598;-56
2024/03/02 13:54:48;;;;;;;;;44.80;36.80;;;;;19.57;100.00;98192.34;706754;22;98204;-88
2024/03/02 13:57:54;;;;;;;;;42.00;35.40;;;;;19.44;100.00;98166.59;6164044;28;97138;-89
2024/03/02 14:00:58;;;;;;;;;45.20;36.00;;;;;19.36;100.00;98150.81;6184015;28;96610;-89
2024/03/02 14:04:01;;;;;;;;;46.40;35.40;;;;;19.51;100.00;98160.72;6183465;28;97237;-90